Time;durP1;ratioP1;P1;durP2;ratioP2;P2;SDS_P1;SDS_P2;PMS_P1;PMS_P2;Temp;Humidity;BMP_temperature;BMP_pressure;BME280_temperature;BME280_humidity;BME280_pressure;Samples;Min_cycle;Max_cycle;Signal;HPM_P1;HPM_P2
2023/03/03 00:02:07;;;;;;;2.70;1.40;;;7.60;34.60;;;;;;5075385;28;20175;-71
2023/03/03 00:04:33;;;;;;;6.90;2.10;;;7.70;34.30;;;;;;5055886;28;20278;-71
2023/03/03 00:06:59;;;;;;;2.70;1.40;;;7.80;34.50;;;;;;5067968;28;20642;-71
2023/03/03 00:09:24;;;;;;;3.63;1.93;;;7.40;35.20;;;;;;5069732;28;20433;-71
2023/03/03 00:11:55;;;;;;;2.77;1.50;;;7.40;35.40;;;;;;5071255;28;20233;-71
2023/03/03 00:14:29;;;;;;;4.95;3.35;;;7.40;35.00;;;;;;5067211;28;20207;-71
2023/03/03 00:16:56;;;;;;;4.47;2.63;;;7.50;35.10;;;;;;5067046;28;20194;-71
2023/03/03 00:19:22;;;;;;;5.65;1.98;;;7.50;34.70;;;;;;5071123;28;20171;-71
2023/03/03 00:21:50;;;;;;;4.50;2.90;;;7.60;35.00;;;;;;5070923;28;20260;-71
2023/03/03 00:24:38;;;;;;;5.60;1.95;;;7.50;34.80;;;;;;5067548;28;20747;-71
2023/03/03 00:27:33;;;;;;;2.70;1.50;;;7.50;35.20;;;;;;5073042;28;20623;-71
2023/03/03 00:29:59;;;;;;;2.70;1.30;;;7.50;35.10;;;;;;5049112;28;20214;-71
2023/03/03 00:32:37;;;;;;;2.80;1.60;;;7.60;35.70;;;;;;5054958;28;20552;-71
2023/03/03 00:35:26;;;;;;;2.45;1.20;;;7.70;34.80;;;;;;5062632;28;20226;-71
2023/03/03 00:37:58;;;;;;;5.03;1.98;;;7.50;35.30;;;;;;5073086;28;20266;-71
2023/03/03 00:40:32;;;;;;;2.92;1.98;;;7.50;35.20;;;;;;5064636;28;20199;-71
2023/03/03 00:42:59;;;;;;;3.90;2.55;;;7.60;34.70;;;;;;5054235;28;20541;-71
2023/03/03 00:45:54;;;;;;;2.70;1.50;;;7.70;34.80;;;;;;5056115;28;20241;-71
2023/03/03 00:48:22;;;;;;;3.88;1.88;;;7.80;34.80;;;;;;4999847;28;20193;-71
2023/03/03 00:50:48;;;;;;;2.50;1.20;;;7.70;34.70;;;;;;5012386;28;20216;-71
2023/03/03 00:53:18;;;;;;;6.65;2.38;;;7.80;35.10;;;;;;5011909;28;20185;-71
2023/03/03 00:55:46;;;;;;;4.15;2.25;;;7.90;35.00;;;;;;5000399;28;20208;-71
2023/03/03 00:58:12;;;;;;;2.78;1.55;;;8.10;34.00;;;;;;5001167;28;20308;-71
2023/03/03 01:00:38;;;;;;;3.65;2.10;;;8.00;34.50;;;;;;5012314;28;20288;-71
2023/03/03 01:03:07;;;;;;;3.22;1.83;;;8.00;34.60;;;;;;5012066;28;20174;-71
2023/03/03 01:05:33;;;;;;;7.75;3.28;;;8.20;33.50;;;;;;5007069;28;20589;-71
2023/03/03 01:07:59;;;;;;;3.25;1.85;;;8.10;33.60;;;;;;5011833;28;20685;-71
2023/03/03 01:10:27;;;;;;;3.30;1.70;;;8.10;34.50;;;;;;5012279;28;20208;-71
2023/03/03 01:12:53;;;;;;;3.42;2.35;;;8.20;33.70;;;;;;5010638;28;20455;-70
2023/03/03 01:15:19;;;;;;;10.98;2.75;;;8.30;33.30;;;;;;5001846;28;20233;-72
2023/03/03 01:17:45;;;;;;;2.83;1.50;;;8.20;33.80;;;;;;5001462;28;20186;-71
2023/03/03 01:20:12;;;;;;;2.50;1.20;;;8.30;33.50;;;;;;5000314;28;20205;-71
2023/03/03 01:22:38;;;;;;;3.22;1.50;;;8.20;33.50;;;;;;4972611;28;20414;-71
2023/03/03 01:25:04;;;;;;;3.90;2.13;;;8.10;33.80;;;;;;5024313;28;20717;-71
2023/03/03 01:27:30;;;;;;;3.50;1.40;;;7.90;34.50;;;;;;5078490;28;20179;-71
2023/03/03 01:29:56;;;;;;;2.40;1.10;;;8.00;35.00;;;;;;5074017;28;20175;-70
2023/03/03 01:32:23;;;;;;;4.90;2.00;;;7.80;35.60;;;;;;5073337;28;20175;-71
2023/03/03 01:34:49;;;;;;;3.33;1.70;;;7.90;34.90;;;;;;5080355;28;20592;-71
2023/03/03 01:37:15;;;;;;;3.43;1.43;;;7.90;34.70;;;;;;5047089;28;20566;-68
2023/03/03 01:39:40;;;;;;;3.10;1.60;;;7.80;34.50;;;;;;5073284;28;20210;-70
2023/03/03 01:42:06;;;;;;;4.40;2.43;;;7.90;34.30;;;;;;5073671;28;20175;-71
2023/03/03 01:44:32;;;;;;;2.80;1.30;;;7.90;34.00;;;;;;5070133;28;20211;-71
2023/03/03 01:47:30;;;;;;;2.90;1.20;;;7.70;34.80;;;;;;5071652;28;20203;-71
2023/03/03 01:50:10;;;;;;;3.33;1.75;;;7.60;35.20;;;;;;5068869;28;20191;-71
2023/03/03 01:52:40;;;;;;;3.30;1.80;;;7.20;36.30;;;;;;5052974;28;20176;-71
2023/03/03 01:55:12;;;;;;;2.60;1.10;;;7.20;36.50;;;;;;5068255;28;20590;-71
2023/03/03 01:57:44;;;;;;;4.00;2.05;;;7.00;36.80;;;;;;5061729;28;20215;-71
2023/03/03 02:00:11;;;;;;;6.53;3.15;;;7.10;36.90;;;;;;5053349;28;20191;-71
2023/03/03 02:02:38;;;;;;;3.60;1.52;;;7.30;36.00;;;;;;5053103;28;20241;-71
2023/03/03 02:05:04;;;;;;;3.30;1.60;;;7.20;36.20;;;;;;5062861;28;20195;-71
2023/03/03 02:07:31;;;;;;;3.13;1.60;;;7.00;36.50;;;;;;5062215;28;20191;-71
2023/03/03 02:10:08;;;;;;;3.00;1.40;;;7.00;36.60;;;;;;5053201;28;20172;-71
2023/03/03 02:12:41;;;;;;;3.03;1.50;;;7.10;36.50;;;;;;5052828;28;20627;-71
2023/03/03 02:15:19;;;;;;;7.30;2.05;;;7.20;35.90;;;;;;5069153;28;20275;-70
2023/03/03 02:17:47;;;;;;;3.25;1.55;;;7.20;35.90;;;;;;5065536;28;20692;-70
2023/03/03 02:20:19;;;;;;;3.40;1.70;;;7.10;36.30;;;;;;5074891;28;20207;-70
2023/03/03 02:23:12;;;;;;;3.05;1.35;;;7.30;35.70;;;;;;5070621;28;20527;-71
2023/03/03 02:25:55;;;;;;;3.05;1.35;;;7.40;35.60;;;;;;5056815;28;20211;-71
2023/03/03 02:28:23;;;;;;;3.10;1.40;;;7.50;34.50;;;;;;5073039;28;20289;-71
2023/03/03 02:30:49;;;;;;;3.63;1.83;;;7.30;35.40;;;;;;5071888;28;20220;-71
2023/03/03 02:33:15;;;;;;;3.57;1.70;;;6.70;36.30;;;;;;5070121;28;20183;-71
2023/03/03 02:35:40;;;;;;;3.27;1.63;;;6.80;36.70;;;;;;5072872;28;20970;-70
2023/03/03 02:38:25;;;;;;;3.90;2.03;;;6.90;36.70;;;;;;5073874;28;20198;-70
2023/03/03 02:40:56;;;;;;;2.92;1.20;;;7.20;35.40;;;;;;5052576;28;20196;-71
2023/03/03 02:43:25;;;;;;;4.20;2.10;;;7.30;35.50;;;;;;5063089;28;20176;-71
2023/03/03 02:45:51;;;;;;;5.10;2.05;;;7.20;36.00;;;;;;5072068;28;20211;-71
2023/03/03 02:48:16;;;;;;;2.80;1.20;;;7.40;35.40;;;;;;5069755;28;20595;-71
2023/03/03 02:50:42;;;;;;;2.90;1.30;;;7.40;35.00;;;;;;5065013;28;20182;-71
2023/03/03 02:53:08;;;;;;;3.30;1.77;;;7.50;35.40;;;;;;5072825;28;20693;-71
2023/03/03 02:55:33;;;;;;;3.43;1.73;;;7.60;34.60;;;;;;5071685;28;20202;-71
2023/03/03 02:57:59;;;;;;;3.10;1.50;;;7.50;34.70;;;;;;5076003;28;20187;-71
2023/03/03 03:00:24;;;;;;;4.17;2.03;;;7.50;35.20;;;;;;5073719;28;20191;-71
2023/03/03 03:02:50;;;;;;;3.00;1.40;;;7.60;34.60;;;;;;5071995;28;20203;-70
2023/03/03 03:05:15;;;;;;;3.53;1.67;;;7.70;34.10;;;;;;5070532;28;20265;-71
2023/03/03 03:07:41;;;;;;;2.77;1.20;;;7.70;34.10;;;;;;5067815;28;20773;-71
2023/03/03 03:10:07;;;;;;;3.87;2.07;;;7.80;35.10;;;;;;5070077;28;20193;-71
2023/03/03 03:12:33;;;;;;;3.10;1.65;;;7.40;35.50;;;;;;5067865;28;20183;-68
2023/03/03 03:14:58;;;;;;;3.23;1.50;;;7.50;35.50;;;;;;5069784;28;20257;-67
2023/03/03 03:17:25;;;;;;;2.70;1.20;;;7.70;34.50;;;;;;5069570;28;20688;-68
2023/03/03 03:19:50;;;;;;;6.25;3.30;;;7.70;34.70;;;;;;5061631;28;20202;-67
2023/03/03 03:22:16;;;;;;;3.77;1.80;;;7.40;35.00;;;;;;5074321;28;20180;-69
2023/03/03 03:24:42;;;;;;;3.20;1.83;;;7.30;35.50;;;;;;5072372;28;20674;-69
2023/03/03 03:27:07;;;;;;;2.80;1.40;;;7.10;35.90;;;;;;5054000;28;20175;-68
2023/03/03 03:29:33;;;;;;;2.60;1.20;;;7.20;35.60;;;;;;5071579;28;20428;-68
2023/03/03 03:31:58;;;;;;;3.17;1.57;;;6.80;35.80;;;;;;5068296;28;20186;-68
2023/03/03 03:34:24;;;;;;;2.60;1.10;;;6.50;37.80;;;;;;5062893;28;20207;-68
2023/03/03 03:36:50;;;;;;;4.30;2.30;;;7.00;36.30;;;;;;5071898;28;20588;-69
2023/03/03 03:39:15;;;;;;;2.80;1.33;;;7.20;35.90;;;;;;5071470;28;20168;-71
2023/03/03 03:41:41;;;;;;;3.27;1.63;;;7.40;35.30;;;;;;5070142;28;20261;-71
2023/03/03 03:44:06;;;;;;;5.10;3.07;;;7.40;35.00;;;;;;5073722;28;20390;-71
2023/03/03 03:46:32;;;;;;;2.70;1.30;;;7.30;35.30;;;;;;5060097;28;20184;-71
2023/03/03 03:48:57;;;;;;;3.83;1.93;;;7.30;35.30;;;;;;5051372;28;20172;-71
2023/03/03 03:51:23;;;;;;;4.40;2.43;;;7.50;35.40;;;;;;5068449;28;20183;-71
2023/03/03 03:53:48;;;;;;;3.07;1.50;;;7.50;35.60;;;;;;5050980;28;20257;-71
2023/03/03 03:56:14;;;;;;;2.90;1.50;;;7.50;35.10;;;;;;5062443;28;20286;-71
2023/03/03 03:58:41;;;;;;;2.70;1.60;;;7.60;35.00;;;;;;5057316;28;20219;-71
2023/03/03 04:01:07;;;;;;;5.03;1.95;;;7.60;34.50;;;;;;5070861;28;20453;-72
2023/03/03 04:03:33;;;;;;;3.75;1.98;;;7.70;34.10;;;;;;5069885;28;20190;-71
2023/03/03 04:05:59;;;;;;;5.15;1.88;;;7.60;34.30;;;;;;5070402;28;20269;-71
2023/03/03 04:08:24;;;;;;;3.67;2.07;;;7.60;34.30;;;;;;5053644;28;20176;-71
2023/03/03 04:10:50;;;;;;;3.00;1.50;;;7.60;34.60;;;;;;5070388;28;20241;-71
2023/03/03 04:13:16;;;;;;;7.83;2.07;;;7.60;34.80;;;;;;5069630;28;20225;-70
2023/03/03 04:15:41;;;;;;;4.73;1.93;;;7.60;35.20;;;;;;5069105;28;20700;-71
2023/03/03 04:18:07;;;;;;;2.50;1.10;;;7.50;35.10;;;;;;5063318;28;20206;-71
2023/03/03 04:20:33;;;;;;;3.55;1.98;;;7.50;35.40;;;;;;5063120;28;20650;-71
2023/03/03 04:22:58;;;;;;;2.93;1.70;;;7.50;35.20;;;;;;5070701;28;20195;-71
2023/03/03 04:25:24;;;;;;;3.20;1.60;;;7.50;35.50;;;;;;5068473;28;20283;-70
2023/03/03 04:27:51;;;;;;;2.50;1.20;;;7.40;35.80;;;;;;5069634;28;20183;-71
2023/03/03 04:30:17;;;;;;;2.50;1.20;;;7.40;35.80;;;;;;5069833;28;20205;-71
2023/03/03 04:32:43;;;;;;;3.13;1.40;;;7.60;34.70;;;;;;5078060;28;20183;-71
2023/03/03 04:35:09;;;;;;;2.80;1.30;;;7.60;35.10;;;;;;5069530;28;20460;-71
2023/03/03 04:37:36;;;;;;;3.33;1.50;;;7.50;35.50;;;;;;5070191;28;20179;-71
2023/03/03 04:40:06;;;;;;;2.65;1.30;;;7.50;35.80;;;;;;5055489;28;20208;-71
2023/03/03 04:42:32;;;;;;;3.33;1.75;;;7.40;35.90;;;;;;5067400;28;20215;-71
2023/03/03 04:44:58;;;;;;;3.00;1.90;;;7.50;35.80;;;;;;5070092;28;20267;-71
2023/03/03 04:47:24;;;;;;;4.03;2.27;;;7.50;35.50;;;;;;5063966;28;20278;-71
2023/03/03 04:49:49;;;;;;;2.87;1.40;;;7.70;35.00;;;;;;5062643;28;20343;-71
2023/03/03 04:52:15;;;;;;;4.30;1.93;;;7.80;34.40;;;;;;5070771;28;20233;-71
2023/03/03 04:54:41;;;;;;;3.00;1.90;;;7.70;34.70;;;;;;5070308;28;20195;-70
2023/03/03 04:57:08;;;;;;;2.60;1.27;;;7.60;34.60;;;;;;5068933;28;20190;-71
2023/03/03 04:59:34;;;;;;;2.65;1.40;;;7.40;34.70;;;;;;5071783;28;20178;-71
2023/03/03 05:01:59;;;;;;;3.90;2.33;;;7.60;35.90;;;;;;5070633;28;20199;-71
2023/03/03 05:04:25;;;;;;;3.00;1.60;;;7.50;35.70;;;;;;5069872;28;20425;-71
2023/03/03 05:06:50;;;;;;;3.00;1.80;;;7.60;34.40;;;;;;5070187;28;20187;-71
2023/03/03 05:09:16;;;;;;;2.70;1.20;;;7.00;35.80;;;;;;5070794;28;20638;-71
2023/03/03 05:11:42;;;;;;;9.50;2.93;;;6.80;36.10;;;;;;5071554;28;20237;-71
2023/03/03 05:14:07;;;;;;;2.70;1.40;;;6.60;36.90;;;;;;5073602;28;20251;-70
2023/03/03 05:16:33;;;;;;;5.17;1.97;;;6.80;36.70;;;;;;5074166;28;20554;-71
2023/03/03 05:18:58;;;;;;;2.80;1.50;;;6.60;36.70;;;;;;5073102;28;20269;-71
2023/03/03 05:21:24;;;;;;;3.33;1.70;;;6.60;37.10;;;;;;5071914;28;20214;-71
2023/03/03 05:23:50;;;;;;;3.77;1.87;;;6.80;36.90;;;;;;5075344;28;20179;-71
2023/03/03 05:26:15;;;;;;;11.80;2.13;;;7.10;36.30;;;;;;5074226;28;20166;-71
2023/03/03 05:28:41;;;;;;;3.67;2.40;;;7.30;35.70;;;;;;5073516;28;20179;-71
2023/03/03 05:31:07;;;;;;;3.17;1.70;;;7.50;35.80;;;;;;5062351;28;20440;-71
2023/03/03 05:33:32;;;;;;;3.10;1.40;;;7.90;33.60;;;;;;5063484;28;20665;-71
2023/03/03 05:35:58;;;;;;;3.37;1.60;;;7.80;33.70;;;;;;5053907;28;20199;-71
2023/03/03 05:38:24;;;;;;;2.83;1.37;;;7.70;34.50;;;;;;5054073;28;20667;-70
2023/03/03 05:40:50;;;;;;;2.60;1.10;;;7.50;34.80;;;;;;5068005;28;20222;-71
2023/03/03 05:43:16;;;;;;;4.65;2.75;;;7.40;35.00;;;;;;5073839;28;20179;-71
2023/03/03 05:45:41;;;;;;;4.20;2.33;;;7.30;35.20;;;;;;5069610;28;20566;-71
2023/03/03 05:48:09;;;;;;;3.13;1.73;;;7.40;35.60;;;;;;5078802;28;20174;-71
2023/03/03 05:50:35;;;;;;;4.63;2.60;;;7.50;35.40;;;;;;5071570;28;20271;-70
2023/03/03 05:53:01;;;;;;;2.92;1.55;;;7.50;35.40;;;;;;5073369;28;20249;-71
2023/03/03 05:55:27;;;;;;;3.27;1.60;;;7.40;35.60;;;;;;5073637;28;20207;-70
2023/03/03 05:57:53;;;;;;;2.47;1.10;;;7.50;35.70;;;;;;5073238;28;20421;-71
2023/03/03 06:00:19;;;;;;;2.60;1.20;;;7.50;35.70;;;;;;5061440;28;20204;-71
2023/03/03 06:02:44;;;;;;;2.70;1.20;;;7.50;35.60;;;;;;5071737;28;20572;-72
2023/03/03 06:05:10;;;;;;;2.97;1.47;;;7.40;35.60;;;;;;5073170;28;20200;-71
2023/03/03 06:07:36;;;;;;;3.10;1.87;;;7.50;35.80;;;;;;5072457;28;20190;-71
2023/03/03 06:10:03;;;;;;;2.77;1.40;;;7.60;35.90;;;;;;5064837;28;20425;-71
2023/03/03 06:12:28;;;;;;;4.38;1.73;;;7.50;35.70;;;;;;5071581;28;20190;-70
2023/03/03 06:14:54;;;;;;;3.77;1.80;;;7.50;36.20;;;;;;5072445;28;20203;-71
2023/03/03 06:17:19;;;;;;;3.10;1.83;;;7.60;35.40;;;;;;5040175;28;20175;-71
2023/03/03 06:19:46;;;;;;;2.83;1.43;;;7.80;35.20;;;;;;5072027;28;20175;-70
2023/03/03 06:22:12;;;;;;;2.78;1.40;;;7.90;34.30;;;;;;5071643;28;20179;-69
2023/03/03 06:24:37;;;;;;;2.70;1.30;;;7.80;35.00;;;;;;5071579;28;20203;-70
2023/03/03 06:27:03;;;;;;;3.43;1.83;;;7.90;35.00;;;;;;5065742;28;20259;-71
2023/03/03 06:29:28;;;;;;;2.83;1.40;;;7.90;34.60;;;;;;5064795;28;20249;-70
2023/03/03 06:31:54;;;;;;;3.30;1.73;;;7.80;35.00;;;;;;5057447;28;20180;-70
2023/03/03 06:34:20;;;;;;;2.90;1.30;;;7.70;34.90;;;;;;5062115;28;21171;-70
2023/03/03 06:36:45;;;;;;;2.67;1.60;;;7.70;35.10;;;;;;5072817;28;20171;-69
2023/03/03 06:39:11;;;;;;;3.70;2.23;;;7.70;35.30;;;;;;5074713;28;20206;-71
2023/03/03 06:41:37;;;;;;;5.70;2.57;;;7.70;35.40;;;;;;5064165;28;20583;-71
2023/03/03 06:44:02;;;;;;;3.33;1.70;;;7.80;34.90;;;;;;5071713;28;20203;-71
2023/03/03 06:46:28;;;;;;;4.63;1.60;;;7.90;35.00;;;;;;5072578;28;20393;-71
2023/03/03 06:48:54;;;;;;;3.57;1.93;;;7.90;35.00;;;;;;5072792;28;20202;-71
2023/03/03 06:51:27;;;;;;;4.30;2.30;;;7.80;34.90;;;;;;5069841;28;20183;-71
2023/03/03 06:53:55;;;;;;;2.40;1.20;;;7.80;35.10;;;;;;5071802;28;20553;-71
2023/03/03 06:56:23;;;;;;;2.90;1.38;;;7.80;35.20;;;;;;5072489;28;20743;-71
2023/03/03 06:58:49;;;;;;;3.58;1.83;;;7.90;35.00;;;;;;5073152;28;20202;-71
2023/03/03 07:01:16;;;;;;;2.50;1.20;;;7.80;35.20;;;;;;5073874;28;20225;-67
2023/03/03 07:03:42;;;;;;;2.50;1.40;;;7.50;35.60;;;;;;5071344;28;20177;-71
2023/03/03 07:06:23;;;;;;;4.07;2.47;;;7.50;37.00;;;;;;5072485;28;20176;-69
2023/03/03 07:08:50;;;;;;;2.80;1.60;;;7.60;35.90;;;;;;5072504;28;20159;-71
2023/03/03 07:11:18;;;;;;;3.30;2.10;;;7.50;37.00;;;;;;5059837;28;20603;-71
2023/03/03 07:13:49;;;;;;;2.85;1.50;;;7.40;36.70;;;;;;5083569;22;20267;-69
2023/03/03 07:16:17;;;;;;;2.80;1.45;;;7.20;37.00;;;;;;5049665;28;20188;-67
2023/03/03 07:18:53;;;;;;;4.00;1.90;;;7.40;36.90;;;;;;5050802;28;20186;-76
2023/03/03 07:21:40;;;;;;;3.25;1.77;;;7.50;36.40;;;;;;5050756;28;20278;-75
2023/03/03 07:24:26;;;;;;;5.05;2.13;;;7.60;36.70;;;;;;5049063;28;20608;-75
2023/03/03 07:26:53;;;;;;;2.72;1.40;;;7.80;36.20;;;;;;5049597;28;20278;-75
2023/03/03 07:29:25;;;;;;;5.35;2.70;;;7.70;36.60;;;;;;5048548;28;20172;-72
2023/03/03 07:31:53;;;;;;;3.08;1.85;;;7.80;35.90;;;;;;5049367;28;20591;-70
2023/03/03 07:34:29;;;;;;;2.60;1.40;;;8.00;35.70;;;;;;5046723;28;20207;-70
2023/03/03 07:37:04;;;;;;;2.47;1.25;;;8.00;35.60;;;;;;5044708;28;20195;-71
2023/03/03 07:39:39;;;;;;;3.28;1.83;;;8.30;34.40;;;;;;5051474;28;20202;-71
2023/03/03 07:42:08;;;;;;;3.40;1.92;;;8.30;34.70;;;;;;5038915;28;20358;-70
2023/03/03 07:44:35;;;;;;;2.70;1.40;;;7.90;35.30;;;;;;5050289;28;20244;-72
2023/03/03 07:47:29;;;;;;;7.55;3.78;;;8.00;34.80;;;;;;5049653;28;20321;-71
2023/03/03 07:49:59;;;;;;;2.80;1.40;;;7.80;35.70;;;;;;5049256;28;20188;-70
2023/03/03 07:52:27;;;;;;;2.50;1.30;;;7.50;36.20;;;;;;5051411;28;20191;-71
2023/03/03 07:54:55;;;;;;;3.08;1.77;;;7.70;36.40;;;;;;5049951;28;20278;-69
2023/03/03 07:57:28;;;;;;;3.83;1.95;;;7.80;36.20;;;;;;5051583;28;20201;-70
2023/03/03 07:59:53;;;;;;;3.45;2.05;;;7.90;36.10;;;;;;5049993;28;20183;-69
2023/03/03 08:02:22;;;;;;;4.10;2.00;;;8.30;34.90;;;;;;5051209;28;20546;-69
2023/03/03 08:04:51;;;;;;;2.53;1.35;;;8.70;33.80;;;;;;5050934;28;20192;-70
2023/03/03 08:07:19;;;;;;;3.03;1.83;;;9.00;32.50;;;;;;5051311;28;20225;-69
2023/03/03 08:09:58;;;;;;;7.90;2.17;;;9.20;32.10;;;;;;5049036;28;20179;-69
2023/03/03 08:12:30;;;;;;;2.50;1.20;;;8.90;32.80;;;;;;5050471;28;20243;-70
2023/03/03 08:15:16;;;;;;;4.75;2.65;;;8.80;33.80;;;;;;5048671;28;20254;-70
2023/03/03 08:17:44;;;;;;;2.75;1.52;;;8.90;32.60;;;;;;5050778;28;20509;-71
2023/03/03 08:20:44;;;;;;;9.65;2.75;;;9.00;32.50;;;;;;5049407;28;20180;-68
2023/03/03 08:23:11;;;;;;;4.18;1.90;;;9.30;31.50;;;;;;4989282;28;20217;-68
2023/03/03 08:25:37;;;;;;;5.68;2.78;;;9.60;31.30;;;;;;4989347;28;20186;-71
2023/03/03 08:28:03;;;;;;;3.63;2.15;;;9.30;31.70;;;;;;4989519;28;20185;-69
2023/03/03 08:30:29;;;;;;;3.73;1.97;;;9.50;31.70;;;;;;4987922;28;20182;-72
2023/03/03 08:32:55;;;;;;;7.20;2.10;;;9.30;31.90;;;;;;4983979;28;20197;-68
2023/03/03 08:35:20;;;;;;;6.73;2.27;;;9.50;31.50;;;;;;4989080;28;20186;-68
2023/03/03 08:37:46;;;;;;;2.60;1.40;;;9.30;31.30;;;;;;4989319;28;20233;-67
2023/03/03 08:40:12;;;;;;;3.53;1.60;;;9.40;32.10;;;;;;5001189;28;20683;-67
2023/03/03 08:42:37;;;;;;;2.80;1.50;;;9.40;31.60;;;;;;4992371;28;20178;-68
2023/03/03 08:45:03;;;;;;;2.37;1.17;;;9.40;30.90;;;;;;4988448;28;20205;-68
2023/03/03 08:47:28;;;;;;;3.17;1.67;;;9.40;31.60;;;;;;4991346;28;20182;-70
2023/03/03 08:49:54;;;;;;;2.67;1.53;;;9.90;29.90;;;;;;4993288;28;20409;-67
2023/03/03 08:52:20;;;;;;;3.00;1.70;;;9.60;30.30;;;;;;4991156;28;20267;-74
2023/03/03 08:54:46;;;;;;;2.77;1.53;;;9.50;31.40;;;;;;4972419;28;20317;-71
2023/03/03 08:57:12;;;;;;;3.60;2.15;;;9.50;31.70;;;;;;4988035;28;20331;-67
2023/03/03 08:59:38;;;;;;;3.33;1.97;;;8.50;32.60;;;;;;5037638;28;20326;-67
2023/03/03 09:02:07;;;;;;;2.90;1.83;;;9.10;32.00;;;;;;5048776;28;20208;-67
2023/03/03 09:04:32;;;;;;;2.85;1.60;;;8.90;31.80;;;;;;5049891;28;20204;-67
2023/03/03 09:06:58;;;;;;;2.83;1.73;;;8.60;32.50;;;;;;5054101;28;20675;-67
2023/03/03 09:09:24;;;;;;;2.97;1.67;;;8.60;32.20;;;;;;5054344;28;20405;-67
2023/03/03 09:11:56;;;;;;;3.47;1.80;;;8.70;32.40;;;;;;5052564;28;20191;-67
2023/03/03 09:14:25;;;;;;;2.80;2.00;;;7.80;34.80;;;;;;5053423;28;20217;-67
2023/03/03 09:16:53;;;;;;;3.67;2.05;;;8.60;33.60;;;;;;5054089;28;20174;-68
2023/03/03 09:19:35;;;;;;;2.63;1.60;;;9.60;30.50;;;;;;5054764;28;20308;-67
2023/03/03 09:22:22;;;;;;;2.45;1.55;;;10.00;29.00;;;;;;5051681;28;20572;-68
2023/03/03 09:24:52;;;;;;;3.90;1.60;;;9.90;29.50;;;;;;5046863;28;20268;-67
2023/03/03 09:27:33;;;;;;;6.15;2.28;;;9.10;31.60;;;;;;5051471;28;20211;-68
2023/03/03 09:30:35;;;;;;;2.90;2.20;;;9.70;30.50;;;;;;5053051;28;20654;-67
2023/03/03 09:33:15;;;;;;;3.17;1.95;;;10.00;29.30;;;;;;5053747;28;20247;-70
2023/03/03 09:35:41;;;;;;;2.58;1.75;;;10.30;29.10;;;;;;5053852;28;20834;-67
2023/03/03 09:38:30;;;;;;;2.57;1.73;;;10.40;28.80;;;;;;5051184;28;20199;-68
2023/03/03 09:41:14;;;;;;;2.92;1.77;;;10.20;28.60;;;;;;5047933;28;20231;-70
2023/03/03 09:43:42;;;;;;;3.55;2.25;;;9.50;28.90;;;;;;5052969;28;20542;-67
2023/03/03 09:46:26;;;;;;;4.03;2.67;;;9.80;29.90;;;;;;5053657;28;20168;-67
2023/03/03 09:49:07;;;;;;;2.25;1.48;;;9.70;29.40;;;;;;5050917;28;20187;-71
2023/03/03 09:52:00;;;;;;;3.05;1.80;;;10.40;27.70;;;;;;5053437;28;20615;-68
2023/03/03 09:54:34;;;;;;;2.00;1.20;;;9.60;29.60;;;;;;5052899;28;20191;-68
2023/03/03 09:57:19;;;;;;;8.13;1.83;;;10.90;27.40;;;;;;5053354;28;20416;-68
2023/03/03 10:00:00;;;;;;;2.00;1.37;;;11.60;26.80;;;;;;5050877;28;20442;-68
2023/03/03 10:02:41;;;;;;;2.57;1.30;;;11.50;25.90;;;;;;5048779;28;21034;-68
2023/03/03 10:05:38;;;;;;;2.70;1.40;;;11.30;25.80;;;;;;5053130;28;20489;-68
2023/03/03 10:08:35;;;;;;;2.13;1.63;;;11.60;24.80;;;;;;5052055;28;20447;-68
2023/03/03 10:11:22;;;;;;;2.57;1.70;;;10.20;27.10;;;;;;5053227;28;20935;-71
2023/03/03 10:14:06;;;;;;;2.20;1.57;;;10.50;26.70;;;;;;5050821;28;21064;-68
2023/03/03 10:16:43;;;;;;;3.73;2.43;;;10.30;26.70;;;;;;5052862;28;20410;-68
2023/03/03 10:19:27;;;;;;;2.57;1.80;;;10.20;27.40;;;;;;5053285;28;20400;-68
2023/03/03 10:22:02;;;;;;;2.57;1.47;;;10.90;26.80;;;;;;5053066;28;20964;-70
2023/03/03 10:24:30;;;;;;;3.27;1.87;;;11.00;26.10;;;;;;5047390;28;20459;-68
2023/03/03 10:27:22;;;;;;;2.10;1.50;;;10.70;26.30;;;;;;5051606;28;20449;-69
2023/03/03 10:30:09;;;;;;;2.57;1.83;;;10.40;26.60;;;;;;5008590;28;20475;-69
2023/03/03 10:32:47;;;;;;;3.08;1.88;;;11.00;26.30;;;;;;5052121;28;20966;-68
2023/03/03 10:35:37;;;;;;;3.97;2.60;;;10.90;26.20;;;;;;5052949;28;20177;-69
2023/03/03 10:38:33;;;;;;;2.50;1.70;;;11.70;25.10;;;;;;5052778;28;20819;-68
2023/03/03 10:41:32;;;;;;;4.27;2.07;;;12.20;25.20;;;;;;5049766;28;20473;-68
2023/03/03 10:43:58;;;;;;;2.97;1.57;;;11.10;25.70;;;;;;5045213;28;20446;-69
2023/03/03 10:46:49;;;;;;;2.77;1.90;;;11.30;25.70;;;;;;5051174;28;20420;-71
2023/03/03 10:49:20;;;;;;;2.20;1.63;;;11.40;25.40;;;;;;5052284;28;20178;-68
2023/03/03 10:52:10;;;;;;;2.20;2.00;;;12.40;25.30;;;;;;5049984;28;20438;-69
2023/03/03 10:54:57;;;;;;;2.37;1.30;;;12.70;24.20;;;;;;5050462;28;20551;-72
2023/03/03 10:57:35;;;;;;;2.20;1.50;;;12.90;23.70;;;;;;5052078;28;20453;-70
2023/03/03 11:00:23;;;;;;;3.07;2.13;;;13.40;23.50;;;;;;5051219;28;20438;-71
2023/03/03 11:03:25;;;;;;;2.13;1.50;;;13.10;23.20;;;;;;5052028;28;20785;-68
2023/03/03 11:05:57;;;;;;;16.23;2.30;;;12.60;23.90;;;;;;5049769;28;20419;-69
2023/03/03 11:09:04;;;;;;;2.33;1.63;;;12.60;23.90;;;;;;5051732;28;20412;-73
2023/03/03 11:12:00;;;;;;;5.70;2.37;;;12.60;25.10;;;;;;5031865;28;20455;-68
2023/03/03 11:14:40;;;;;;;4.63;2.07;;;13.70;23.00;;;;;;5051348;28;20475;-68
2023/03/03 11:17:30;;;;;;;2.60;1.80;;;14.50;22.00;;;;;;5050294;28;20527;-68
2023/03/03 11:19:56;;;;;;;2.40;1.60;;;14.90;22.30;;;;;;5046393;28;20782;-69
2023/03/03 11:22:25;;;;;;;3.90;2.30;;;15.10;21.70;;;;;;5049055;28;20473;-70
2023/03/03 11:24:53;;;;;;;3.10;1.83;;;16.10;20.50;;;;;;5051536;28;20239;-72
2023/03/03 11:27:30;;;;;;;3.00;1.90;;;17.30;19.20;;;;;;5050349;28;20421;-71
2023/03/03 11:30:10;;;;;;;2.90;2.03;;;16.60;20.40;;;;;;5051988;28;20501;-69
2023/03/03 11:32:46;;;;;;;3.53;2.17;;;16.20;20.50;;;;;;5048906;28;20782;-69
2023/03/03 11:35:35;;;;;;;4.33;3.00;;;17.00;20.10;;;;;;5050513;28;20414;-71
2023/03/03 11:38:15;;;;;;;5.80;4.00;;;17.00;18.40;;;;;;5045368;28;20432;-72
2023/03/03 11:41:01;;;;;;;4.10;3.00;;;16.40;19.10;;;;;;5043736;28;20514;-69
2023/03/03 11:43:33;;;;;;;5.60;3.67;;;16.60;19.10;;;;;;5050680;28;20432;-69
2023/03/03 11:46:47;;;;;;;6.10;2.97;;;17.10;18.90;;;;;;5051557;28;20398;-69
2023/03/03 11:49:21;;;;;;;3.97;2.57;;;18.30;18.50;;;;;;5049633;28;20430;-69
2023/03/03 11:52:32;;;;;;;4.50;3.13;;;19.20;17.80;;;;;;5051457;28;20418;-72
2023/03/03 11:55:27;;;;;;;5.63;2.60;;;19.50;15.90;;;;;;5009238;28;20438;-69
2023/03/03 11:58:02;;;;;;;4.50;2.50;;;19.50;16.00;;;;;;5007914;28;20420;-69
2023/03/03 12:00:53;;;;;;;5.17;3.70;;;19.00;16.40;;;;;;5023032;28;20476;-69
2023/03/03 12:03:34;;;;;;;4.90;2.40;;;17.60;18.50;;;;;;5016423;28;20447;-71
2023/03/03 12:06:22;;;;;;;8.07;3.50;;;17.20;18.50;;;;;;5021987;28;20500;-69
2023/03/03 12:09:06;;;;;;;4.13;2.77;;;16.80;18.10;;;;;;5017051;28;20426;-70
2023/03/03 12:11:46;;;;;;;5.33;3.07;;;15.60;19.90;;;;;;5009116;28;20966;-70
2023/03/03 12:14:26;;;;;;;3.30;2.20;;;16.40;19.60;;;;;;5008255;28;20976;-70
2023/03/03 12:17:03;;;;;;;4.73;2.60;;;16.40;20.60;;;;;;5009362;28;20447;-71
2023/03/03 12:19:47;;;;;;;5.17;3.40;;;16.70;19.10;;;;;;5018903;28;20456;-71
2023/03/03 12:22:21;;;;;;;5.00;2.00;;;17.10;19.20;;;;;;5028418;28;20469;-70
2023/03/03 12:25:05;;;;;;;7.00;3.30;;;16.60;18.60;;;;;;5028158;28;20436;-70
2023/03/03 12:27:55;;;;;;;3.80;2.57;;;16.60;18.90;;;;;;5024586;28;20435;-70
2023/03/03 12:31:00;;;;;;;6.87;3.40;;;16.70;19.00;;;;;;5015508;28;20620;-70
2023/03/03 12:33:50;;;;;;;2.67;1.70;;;16.50;18.50;;;;;;5033583;28;20468;-72
2023/03/03 12:36:53;;;;;;;5.20;2.90;;;16.40;18.40;;;;;;5049395;28;20450;-70
2023/03/03 12:39:37;;;;;;;3.33;1.67;;;16.50;19.50;;;;;;5050912;28;20412;-71
2023/03/03 12:42:05;;;;;;;3.93;2.23;;;16.70;20.50;;;;;;5050400;28;20451;-68
2023/03/03 12:44:47;;;;;;;3.50;1.93;;;16.70;19.20;;;;;;5047810;28;20449;-67
2023/03/03 12:47:26;;;;;;;5.07;2.80;;;16.70;18.40;;;;;;5050425;28;20416;-69
2023/03/03 12:50:10;;;;;;;5.60;3.07;;;17.60;17.50;;;;;;5050849;28;20426;-68
2023/03/03 12:53:19;;;;;;;3.63;2.57;;;18.00;18.40;;;;;;5050478;28;20406;-68
2023/03/03 12:56:02;;;;;;;4.33;2.30;;;17.50;17.80;;;;;;5049402;28;20485;-69
2023/03/03 12:58:39;;;;;;;4.07;2.63;;;17.20;17.80;;;;;;5050406;28;20815;-68
2023/03/03 13:01:16;;;;;;;4.40;2.80;;;17.30;17.90;;;;;;5049492;28;20471;-68
2023/03/03 13:04:06;;;;;;;4.00;2.67;;;16.00;18.80;;;;;;5050196;28;20791;-68
2023/03/03 13:06:46;;;;;;;3.60;2.17;;;15.70;20.40;;;;;;5049080;28;20977;-68
2023/03/03 13:09:53;;;;;;;4.30;2.90;;;15.50;20.70;;;;;;5050778;28;20400;-69
2023/03/03 13:12:52;;;;;;;2.60;1.83;;;16.20;19.10;;;;;;5050139;28;20426;-69
2023/03/03 13:15:27;;;;;;;3.97;2.87;;;15.80;19.10;;;;;;5048402;28;20919;-69
2023/03/03 13:18:24;;;;;;;5.47;3.33;;;16.90;18.10;;;;;;5050060;28;20447;-67
2023/03/03 13:20:52;;;;;;;8.43;4.03;;;17.40;17.60;;;;;;5024830;28;20827;-70
2023/03/03 13:23:33;;;;;;;10.00;4.73;;;18.30;16.40;;;;;;5030106;28;20432;-70
2023/03/03 13:26:27;;;;;;;4.37;2.33;;;19.00;15.50;;;;;;5035807;28;20441;-70